Alta Vista, Iowa
Current Conditions -  °F | °C
As of 3:55 AM on Friday 31 Oct 2014 (Local Time) from KCCY Reporting Station
Clear Clear  
Wind Chill: 16°   Ceiling: Unl
Heat Index: 28°   Visibility: 10mi
Dew Point: 16°   Wind: 17mph
Humidity: 59%   Direction: 340°NNW
Pressure: 30.36"   Gusts: 26mph
Location:  43.2°N, 92.42°W
Report Text: KCCY 310855Z AUTO 34015G23KT 10SM CLR M02/M09 A3036 RMK AO2
Loading
Personal Weather Stations






























Interactive Weather Map New forecast layout! Learn more

10-Day Weather Forecast

Advertisements
Track Severe Weather on mobile